Time;durP1;ratioP1;P1;durP2;ratioP2;P2;SDS_P1;SDS_P2;PMS_P1;PMS_P2;Temp;Humidity;BMP_temperature;BMP_pressure;BME280_temperature;BME280_humidity;BME280_pressure;Samples;Min_cycle;Max_cycle;Signal;HPM_P1;HPM_P2
2021/09/13 00:01:05;;;;;;;7.22;6.18;;;22.10;99.90;;;;;;5095365;28;20043;-78
2021/09/13 00:03:31;;;;;;;7.78;6.95;;;22.10;99.90;;;;;;5126054;27;20099;-78
2021/09/13 00:06:00;;;;;;;8.65;6.72;;;22.10;99.90;;;;;;5106791;27;20047;-78
2021/09/13 00:08:25;;;;;;;7.22;6.53;;;22.10;99.90;;;;;;5118412;27;20044;-78
2021/09/13 00:10:51;;;;;;;7.57;6.75;;;22.10;99.90;;;;;;5121180;27;20034;-78
2021/09/13 00:13:17;;;;;;;6.90;6.25;;;22.00;99.90;;;;;;5130378;27;20106;-78
2021/09/13 00:15:43;;;;;;;11.30;6.97;;;22.00;99.90;;;;;;5112165;27;20023;-78
2021/09/13 00:18:09;;;;;;;6.45;5.85;;;22.00;99.90;;;;;;5117423;27;20039;-78
2021/09/13 00:20:35;;;;;;;15.25;6.75;;;22.00;99.90;;;;;;5139851;27;20027;-78
2021/09/13 00:23:01;;;;;;;8.90;6.35;;;22.00;99.90;;;;;;5138427;27;20052;-78
2021/09/13 00:25:27;;;;;;;8.23;6.75;;;21.90;99.90;;;;;;5131531;27;20024;-78
2021/09/13 00:27:54;;;;;;;7.80;6.88;;;21.90;99.90;;;;;;5128782;27;20547;-78
2021/09/13 00:30:20;;;;;;;10.63;6.28;;;21.90;99.90;;;;;;5112160;27;20026;-78
2021/09/13 00:32:46;;;;;;;9.30;6.40;;;21.90;99.90;;;;;;5123441;27;20024;-78
2021/09/13 00:35:11;;;;;;;7.22;6.03;;;21.90;99.90;;;;;;5122215;27;20094;-78
2021/09/13 00:37:37;;;;;;;6.78;6.18;;;21.90;99.90;;;;;;5106307;28;20431;-78
2021/09/13 00:40:04;;;;;;;8.13;7.38;;;21.80;99.90;;;;;;5135172;27;20495;-78
2021/09/13 00:42:31;;;;;;;10.57;7.20;;;21.80;99.90;;;;;;5130950;27;20038;-79
2021/09/13 00:44:58;;;;;;;8.70;7.25;;;21.80;99.90;;;;;;5121669;27;20019;-78
2021/09/13 00:47:23;;;;;;;11.75;7.03;;;21.80;99.90;;;;;;5099470;28;20061;-78
2021/09/13 00:49:49;;;;;;;6.63;6.03;;;21.90;99.90;;;;;;5125746;27;20024;-79
2021/09/13 00:52:15;;;;;;;14.77;7.03;;;21.90;99.90;;;;;;5140963;27;20030;-78
2021/09/13 00:54:41;;;;;;;8.75;6.80;;;21.90;99.90;;;;;;5134182;27;20027;-77
2021/09/13 00:57:07;;;;;;;11.63;6.93;;;21.80;99.90;;;;;;5115093;28;20077;-78
2021/09/13 00:59:33;;;;;;;11.25;5.70;;;21.80;99.90;;;;;;5120920;27;20035;-77
2021/09/13 01:01:59;;;;;;;9.20;6.78;;;21.90;99.90;;;;;;5128015;27;20066;-78
2021/09/13 01:04:25;;;;;;;9.48;6.88;;;21.90;99.90;;;;;;5113056;27;20504;-78
2021/09/13 01:06:50;;;;;;;9.05;6.43;;;21.90;99.90;;;;;;5095686;28;20035;-78
2021/09/13 01:09:16;;;;;;;7.68;7.03;;;21.90;99.90;;;;;;5117426;28;20102;-78
2021/09/13 01:11:43;;;;;;;9.63;6.60;;;21.90;99.90;;;;;;5126708;27;20027;-78
2021/09/13 01:14:09;;;;;;;11.52;8.07;;;22.00;99.90;;;;;;5086831;28;20489;-78
2021/09/13 01:16:35;;;;;;;8.70;6.15;;;22.00;99.90;;;;;;5092410;27;20036;-78
2021/09/13 01:19:01;;;;;;;7.68;6.47;;;22.00;99.90;;;;;;5129521;27;20101;-78
2021/09/13 01:21:27;;;;;;;12.05;6.90;;;22.00;99.90;;;;;;5121731;27;20023;-79
2021/09/13 01:23:53;;;;;;;6.90;5.40;;;22.00;99.90;;;;;;5121535;27;20032;-78
2021/09/13 01:26:19;;;;;;;9.93;7.50;;;22.00;99.90;;;;;;5112738;27;20024;-78
2021/09/13 01:28:45;;;;;;;9.07;7.03;;;22.00;99.90;;;;;;5102221;27;20032;-77
2021/09/13 01:31:13;;;;;;;8.50;6.88;;;22.00;99.90;;;;;;5094251;28;20312;-78
2021/09/13 01:33:39;;;;;;;10.50;6.65;;;21.90;99.90;;;;;;5105549;28;20466;-77
2021/09/13 01:36:05;;;;;;;12.32;6.75;;;21.90;99.90;;;;;;5112016;28;20035;-78
2021/09/13 01:38:32;;;;;;;7.07;6.13;;;22.00;99.90;;;;;;5113173;28;20028;-77
2021/09/13 01:40:58;;;;;;;12.07;6.45;;;21.90;99.90;;;;;;5106755;28;20020;-78
2021/09/13 01:43:24;;;;;;;11.95;6.43;;;21.90;99.90;;;;;;5088858;28;20028;-78
2021/09/13 01:45:50;;;;;;;7.40;6.32;;;21.90;99.90;;;;;;5114682;28;20020;-78
2021/09/13 01:48:16;;;;;;;11.98;6.65;;;21.90;99.90;;;;;;5112902;28;20366;-78
2021/09/13 01:50:42;;;;;;;17.10;7.03;;;21.90;99.90;;;;;;5102814;28;20033;-78
2021/09/13 01:53:08;;;;;;;7.35;6.75;;;21.90;99.90;;;;;;5121180;28;20011;-79
2021/09/13 01:55:33;;;;;;;7.38;6.72;;;21.80;99.90;;;;;;5110660;28;20083;-78
2021/09/13 01:57:59;;;;;;;7.78;7.15;;;21.80;99.90;;;;;;5109592;28;20020;-78
2021/09/13 02:00:25;;;;;;;12.00;7.32;;;21.70;99.90;;;;;;5092957;28;20453;-78
2021/09/13 02:02:51;;;;;;;8.13;7.32;;;21.60;99.90;;;;;;5104971;28;20083;-78
2021/09/13 02:05:17;;;;;;;7.68;6.93;;;21.60;99.90;;;;;;5087156;28;20406;-78
2021/09/13 02:07:42;;;;;;;8.95;7.50;;;21.60;99.90;;;;;;5075731;28;20447;-78
2021/09/13 02:10:09;;;;;;;7.80;7.10;;;21.50;99.90;;;;;;5114328;28;20039;-78
2021/09/13 02:12:35;;;;;;;10.38;6.57;;;21.40;99.90;;;;;;5101940;28;20062;-77
2021/09/13 02:15:01;;;;;;;7.00;6.40;;;21.40;99.90;;;;;;5077104;28;20024;-78
2021/09/13 02:17:27;;;;;;;12.32;7.47;;;21.50;99.90;;;;;;5091293;28;20033;-78
2021/09/13 02:19:53;;;;;;;9.57;7.15;;;21.60;99.90;;;;;;5106124;28;20027;-77
2021/09/13 02:22:19;;;;;;;9.50;6.70;;;21.80;99.90;;;;;;5084529;28;20024;-78
2021/09/13 02:24:45;;;;;;;7.80;7.18;;;21.80;99.90;;;;;;5097133;28;20027;-78
2021/09/13 02:27:10;;;;;;;9.82;6.88;;;21.90;99.90;;;;;;5108650;28;20411;-78
2021/09/13 02:29:36;;;;;;;8.55;7.38;;;21.90;99.90;;;;;;5100015;28;20114;-79
2021/09/13 02:32:02;;;;;;;11.38;7.90;;;22.00;99.90;;;;;;5115197;28;20294;-78
2021/09/13 02:34:28;;;;;;;9.05;6.72;;;22.00;99.90;;;;;;5103434;28;20029;-77
2021/09/13 02:36:54;;;;;;;11.43;6.20;;;21.90;99.90;;;;;;5104637;28;20023;-78
2021/09/13 02:39:20;;;;;;;10.52;7.07;;;21.90;99.90;;;;;;5101147;28;20077;-77
2021/09/13 02:41:46;;;;;;;7.10;6.40;;;21.80;99.90;;;;;;5091930;28;20035;-77
2021/09/13 02:44:12;;;;;;;7.68;6.97;;;21.80;99.90;;;;;;5117974;28;20027;-78
2021/09/13 02:46:38;;;;;;;10.40;6.90;;;21.80;99.90;;;;;;5111602;28;20028;-77
2021/09/13 02:49:04;;;;;;;8.57;6.93;;;21.80;99.90;;;;;;5109946;28;20085;-78
2021/09/13 02:51:29;;;;;;;11.60;7.03;;;21.80;99.90;;;;;;5078823;28;20027;-78
2021/09/13 02:53:55;;;;;;;11.82;7.40;;;21.80;99.90;;;;;;5099524;28;20423;-78
2021/09/13 02:56:21;;;;;;;10.55;8.02;;;21.80;99.90;;;;;;5093058;28;20032;-78
2021/09/13 02:58:47;;;;;;;11.93;6.68;;;21.70;99.90;;;;;;5092779;28;20087;-77
2021/09/13 03:01:13;;;;;;;7.25;6.55;;;21.70;99.90;;;;;;5076146;28;20029;-78
2021/09/13 03:03:40;;;;;;;12.38;7.13;;;21.60;99.90;;;;;;5088240;28;20123;-78
2021/09/13 03:06:06;;;;;;;7.97;6.10;;;21.60;99.90;;;;;;5081326;28;20442;-77
2021/09/13 03:08:31;;;;;;;8.48;7.47;;;21.50;99.90;;;;;;5100816;28;20031;-77
2021/09/13 03:10:57;;;;;;;8.27;6.75;;;21.50;99.90;;;;;;5088421;28;20473;-78
2021/09/13 03:13:23;;;;;;;8.50;7.40;;;21.50;99.90;;;;;;5097919;28;20020;-78
2021/09/13 03:15:49;;;;;;;9.15;7.25;;;21.40;99.90;;;;;;5090687;28;20024;-78
2021/09/13 03:18:15;;;;;;;10.07;6.50;;;21.40;99.90;;;;;;5103041;28;20099;-78
2021/09/13 03:20:40;;;;;;;7.57;6.88;;;21.30;99.90;;;;;;5100261;28;20437;-78
2021/09/13 03:23:06;;;;;;;11.55;7.03;;;21.20;99.90;;;;;;5084994;28;20441;-80
2021/09/13 03:25:32;;;;;;;8.85;8.02;;;21.20;99.90;;;;;;5075658;28;20509;-79
2021/09/13 03:27:58;;;;;;;14.07;7.47;;;21.20;99.90;;;;;;5100376;28;20023;-79
2021/09/13 03:30:24;;;;;;;7.60;6.90;;;21.20;99.90;;;;;;5098544;28;20030;-79
2021/09/13 03:32:50;;;;;;;15.40;7.10;;;21.20;99.90;;;;;;5099416;28;20505;-79
2021/09/13 03:35:16;;;;;;;10.60;6.45;;;21.20;99.90;;;;;;5078759;28;20028;-80
2021/09/13 03:37:42;;;;;;;14.95;7.32;;;21.20;99.90;;;;;;5084559;28;20027;-80
2021/09/13 03:40:08;;;;;;;7.63;7.03;;;21.20;99.90;;;;;;5103519;28;20310;-79
2021/09/13 03:42:34;;;;;;;9.60;7.20;;;21.10;99.90;;;;;;5107719;28;20043;-78
2021/09/13 03:45:00;;;;;;;12.10;7.30;;;21.10;99.90;;;;;;5095745;28;20027;-78
2021/09/13 03:47:26;;;;;;;10.25;6.95;;;21.00;99.90;;;;;;5072011;28;20177;-78
2021/09/13 03:49:51;;;;;;;18.08;7.55;;;21.10;99.90;;;;;;5102110;28;20127;-78
2021/09/13 03:52:17;;;;;;;7.78;7.07;;;21.10;99.90;;;;;;5098333;28;20020;-78
2021/09/13 03:54:43;;;;;;;18.90;7.43;;;21.10;99.90;;;;;;5103688;28;20193;-78
2021/09/13 03:57:09;;;;;;;8.68;7.50;;;21.10;99.90;;;;;;5099205;28;20024;-78
2021/09/13 03:59:38;;;;;;;19.42;7.50;;;21.10;99.90;;;;;;5096239;28;20303;-77
2021/09/13 04:02:04;;;;;;;10.07;7.10;;;21.10;99.90;;;;;;5096815;28;20027;-77
2021/09/13 04:04:31;;;;;;;10.98;7.10;;;21.10;99.90;;;;;;5095250;28;20036;-77
2021/09/13 04:07:04;;;;;;;13.23;7.78;;;21.10;99.90;;;;;;5091760;28;20477;-77
2021/09/13 04:12:00;;;;;;;8.23;7.43;;;21.10;99.90;;;;;;5099365;28;20031;-77
2021/09/13 04:14:30;;;;;;;7.78;6.97;;;21.10;99.90;;;;;;5097358;28;20019;-77
2021/09/13 04:16:57;;;;;;;10.50;8.13;;;21.10;99.90;;;;;;5111649;28;20389;-78
2021/09/13 04:19:24;;;;;;;10.43;8.27;;;21.10;99.90;;;;;;5102412;28;20028;-78
2021/09/13 04:21:51;;;;;;;8.50;7.18;;;21.10;99.90;;;;;;5109771;28;20160;-77
2021/09/13 04:24:17;;;;;;;10.43;7.75;;;21.10;99.90;;;;;;5105409;28;20031;-77
2021/09/13 04:26:43;;;;;;;9.75;7.68;;;21.10;99.90;;;;;;5097267;28;20032;-77
2021/09/13 04:29:09;;;;;;;10.35;7.13;;;21.10;99.90;;;;;;5086529;28;20385;-77
2021/09/13 04:31:36;;;;;;;11.20;7.38;;;21.20;99.90;;;;;;5104775;28;20015;-77
2021/09/13 04:34:14;;;;;;;11.73;7.20;;;21.20;99.90;;;;;;5102203;28;20028;-78
2021/09/13 04:36:48;;;;;;;9.25;6.75;;;21.20;99.90;;;;;;5109350;28;20115;-78
2021/09/13 04:39:14;;;;;;;12.73;8.18;;;21.20;99.90;;;;;;5104178;28;20024;-77
2021/09/13 04:41:40;;;;;;;12.70;8.07;;;21.10;99.90;;;;;;5113707;28;20035;-77
2021/09/13 04:44:09;;;;;;;10.70;7.28;;;21.10;99.90;;;;;;5096540;28;20029;-78
2021/09/13 04:46:34;;;;;;;7.72;6.90;;;21.10;99.90;;;;;;5110448;28;20023;-78
2021/09/13 04:49:00;;;;;;;8.30;7.32;;;21.10;99.90;;;;;;5114178;28;20421;-77
2021/09/13 04:51:27;;;;;;;11.63;6.82;;;21.10;99.90;;;;;;5090646;28;20478;-76
2021/09/13 04:53:53;;;;;;;11.73;6.95;;;21.10;99.90;;;;;;5096539;28;20017;-75
2021/09/13 04:56:19;;;;;;;11.32;7.80;;;21.00;99.90;;;;;;5121850;28;20055;-76
2021/09/13 04:58:45;;;;;;;16.58;7.30;;;21.00;99.90;;;;;;5082102;28;20051;-75
2021/09/13 05:01:11;;;;;;;9.32;6.80;;;21.00;99.90;;;;;;5081641;28;20043;-77
2021/09/13 05:03:37;;;;;;;8.45;7.15;;;21.00;99.90;;;;;;5094955;28;20142;-77
2021/09/13 05:06:03;;;;;;;12.77;7.80;;;21.00;99.90;;;;;;5118753;28;20032;-77
2021/09/13 05:08:29;;;;;;;12.32;7.63;;;21.00;99.90;;;;;;5110508;28;20023;-77
2021/09/13 05:10:55;;;;;;;11.07;6.53;;;21.20;99.90;;;;;;5113424;28;20031;-78
2021/09/13 05:13:21;;;;;;;17.42;7.40;;;21.20;99.90;;;;;;5112577;28;20075;-78
2021/09/13 05:15:46;;;;;;;10.50;6.60;;;21.20;99.90;;;;;;5098485;28;20028;-78
2021/09/13 05:18:12;;;;;;;7.95;7.28;;;21.20;99.90;;;;;;5099771;28;20024;-78
2021/09/13 05:20:38;;;;;;;15.45;7.45;;;21.30;99.90;;;;;;5071572;28;20039;-77
2021/09/13 05:23:04;;;;;;;10.77;7.57;;;21.40;99.90;;;;;;5096836;28;20078;-77
2021/09/13 05:25:31;;;;;;;11.10;8.13;;;21.50;99.90;;;;;;5111560;28;20508;-76
2021/09/13 05:27:56;;;;;;;7.97;7.13;;;21.50;99.90;;;;;;5107809;28;20016;-77
2021/09/13 05:30:23;;;;;;;12.60;6.97;;;21.40;99.90;;;;;;5125220;28;20057;-77
2021/09/13 05:32:48;;;;;;;7.90;6.43;;;21.50;99.90;;;;;;5129695;28;20062;-78
2021/09/13 05:35:14;;;;;;;9.25;7.55;;;21.50;99.90;;;;;;5124084;28;20032;-77
2021/09/13 05:37:40;;;;;;;14.57;7.53;;;21.60;99.90;;;;;;5119899;28;20039;-77
2021/09/13 05:40:06;;;;;;;8.25;6.95;;;21.70;99.90;;;;;;5075288;28;20070;-77
2021/09/13 05:42:41;;;;;;;10.48;6.75;;;21.80;99.90;;;;;;5083641;28;20039;-77
2021/09/13 05:45:08;;;;;;;21.15;8.50;;;21.80;99.90;;;;;;5092642;28;20016;-77
2021/09/13 05:47:33;;;;;;;11.48;7.32;;;21.80;99.90;;;;;;5116010;28;20027;-77
2021/09/13 05:49:59;;;;;;;16.13;8.65;;;21.70;99.90;;;;;;5102570;28;20023;-79
2021/09/13 05:52:25;;;;;;;16.20;7.90;;;21.70;99.90;;;;;;5083763;28;20028;-78
2021/09/13 05:54:51;;;;;;;13.50;7.57;;;21.80;99.90;;;;;;5106337;28;20045;-77
2021/09/13 05:57:17;;;;;;;16.58;7.93;;;22.00;99.90;;;;;;5116724;28;20564;-76
2021/09/13 05:59:43;;;;;;;10.93;7.97;;;22.10;99.90;;;;;;5103573;28;20054;-78
2021/09/13 06:02:10;;;;;;;15.18;7.88;;;22.10;99.90;;;;;;5108157;28;20019;-78
2021/09/13 06:04:37;;;;;;;12.48;7.10;;;22.20;99.90;;;;;;5111090;28;20099;-77
2021/09/13 06:07:04;;;;;;;9.23;7.35;;;22.20;99.90;;;;;;5117735;28;20465;-78
2021/09/13 06:09:31;;;;;;;11.63;7.35;;;22.40;99.90;;;;;;5107046;28;20058;-77
2021/09/13 06:11:56;;;;;;;9.20;6.80;;;22.40;99.90;;;;;;5100724;28;20028;-77
2021/09/13 06:14:22;;;;;;;12.77;7.72;;;22.60;99.90;;;;;;5104036;28;20019;-77
2021/09/13 06:16:48;;;;;;;17.50;7.60;;;22.70;99.90;;;;;;5117003;28;20020;-78
2021/09/13 06:19:14;;;;;;;9.88;6.88;;;22.80;99.90;;;;;;5109205;28;20153;-77
2021/09/13 06:21:40;;;;;;;9.05;7.10;;;22.90;99.90;;;;;;5113258;28;20036;-77
2021/09/13 06:24:05;;;;;;;11.05;7.15;;;22.90;99.90;;;;;;5105469;28;20362;-77
2021/09/13 06:26:31;;;;;;;7.95;7.20;;;22.90;99.90;;;;;;5116868;28;20028;-79
2021/09/13 06:28:57;;;;;;;11.73;6.07;;;23.00;99.90;;;;;;5111652;28;20030;-77
2021/09/13 06:31:23;;;;;;;13.63;6.90;;;23.10;99.90;;;;;;5102066;28;20047;-78
2021/09/13 06:33:49;;;;;;;14.05;8.00;;;23.20;99.90;;;;;;5104493;28;20157;-77
2021/09/13 06:36:14;;;;;;;7.75;6.82;;;23.30;99.90;;;;;;5116890;28;20034;-77
2021/09/13 06:38:42;;;;;;;7.25;6.57;;;23.40;99.90;;;;;;5102774;28;20027;-77
2021/09/13 06:41:08;;;;;;;8.35;6.90;;;23.50;99.90;;;;;;5107949;28;20040;-77
2021/09/13 06:43:34;;;;;;;9.70;8.20;;;23.60;99.90;;;;;;5106165;28;20114;-77
2021/09/13 06:46:10;;;;;;;7.72;6.65;;;23.70;99.90;;;;;;5117194;28;20023;-77
2021/09/13 06:48:39;;;;;;;17.90;7.35;;;23.70;99.90;;;;;;5104854;28;20024;-77
2021/09/13 06:51:05;;;;;;;14.63;7.20;;;23.70;99.90;;;;;;5082384;28;20020;-79
2021/09/13 06:53:31;;;;;;;9.13;8.32;;;23.70;99.90;;;;;;5087497;28;20123;-77
2021/09/13 06:55:57;;;;;;;17.50;7.10;;;23.80;99.90;;;;;;5105130;28;20020;-78
2021/09/13 06:58:23;;;;;;;11.65;6.88;;;24.00;99.90;;;;;;5096067;28;20027;-78
2021/09/13 07:00:48;;;;;;;11.35;7.25;;;24.20;99.90;;;;;;5070805;28;20017;-77
2021/09/13 07:03:16;;;;;;;15.00;8.10;;;24.30;99.90;;;;;;5107572;28;20035;-77
2021/09/13 07:05:42;;;;;;;21.15;14.32;;;24.40;99.90;;;;;;5100636;28;20101;-78
2021/09/13 07:08:08;;;;;;;30.40;10.85;;;24.50;99.90;;;;;;5104397;28;20025;-77
2021/09/13 07:10:34;;;;;;;8.35;7.30;;;24.60;99.90;;;;;;5106661;28;20055;-77
2021/09/13 07:13:01;;;;;;;9.82;7.63;;;24.70;99.90;;;;;;5092454;28;20020;-77
2021/09/13 07:15:26;;;;;;;11.90;7.72;;;24.80;99.90;;;;;;5108558;28;20035;-77
2021/09/13 07:17:52;;;;;;;11.13;6.85;;;24.80;99.90;;;;;;5115853;28;20028;-78
2021/09/13 07:20:18;;;;;;;11.48;6.15;;;24.90;99.90;;;;;;5101422;28;20131;-78
2021/09/13 07:22:44;;;;;;;10.00;5.70;;;24.90;99.90;;;;;;5113445;28;20024;-77
2021/09/13 07:25:11;;;;;;;16.38;7.00;;;25.00;99.90;;;;;;5112465;28;20321;-79
2021/09/13 07:27:39;;;;;;;8.77;7.10;;;25.10;99.90;;;;;;5104835;28;20209;-78
2021/09/13 07:30:06;;;;;;;13.05;6.88;;;25.20;99.90;;;;;;5097222;28;20024;-77
2021/09/13 07:32:32;;;;;;;11.02;7.13;;;25.30;99.90;;;;;;5091583;28;20028;-77
2021/09/13 07:35:06;;;;;;;9.07;6.50;;;25.40;99.90;;;;;;5088251;28;20023;-77
2021/09/13 07:37:32;;;;;;;9.98;6.57;;;25.50;99.90;;;;;;5085899;28;20036;-78
2021/09/13 07:39:58;;;;;;;7.45;6.18;;;25.60;99.90;;;;;;5104302;28;20046;-78
2021/09/13 07:42:23;;;;;;;9.70;6.53;;;25.60;99.90;;;;;;5084590;28;20023;-77
2021/09/13 07:44:51;;;;;;;16.40;6.80;;;25.70;99.90;;;;;;5101959;28;20019;-77
2021/09/13 07:47:18;;;;;;;15.88;7.72;;;25.90;99.90;;;;;;5102251;28;20024;-77
2021/09/13 07:49:44;;;;;;;10.20;5.82;;;25.90;99.90;;;;;;5106696;28;20069;-77
2021/09/13 07:52:10;;;;;;;11.70;6.45;;;26.00;99.90;;;;;;5110925;28;20024;-78
2021/09/13 07:54:36;;;;;;;10.40;4.97;;;26.10;99.90;;;;;;5122869;28;20023;-77
2021/09/13 07:57:02;;;;;;;9.32;6.38;;;26.10;99.90;;;;;;5118247;28;20454;-77
2021/09/13 07:59:28;;;;;;;10.25;7.55;;;26.30;99.90;;;;;;5109406;28;20062;-77
2021/09/13 08:01:53;;;;;;;21.08;12.50;;;26.30;99.90;;;;;;5097700;28;20066;-77
2021/09/13 08:04:19;;;;;;;7.97;6.88;;;26.40;99.90;;;;;;5120213;28;20084;-77
2021/09/13 08:06:45;;;;;;;18.38;9.60;;;26.30;99.90;;;;;;5120282;28;20023;-77
2021/09/13 08:09:11;;;;;;;8.32;5.50;;;26.40;99.90;;;;;;5107023;28;20034;-76
2021/09/13 08:11:37;;;;;;;7.68;6.93;;;26.40;99.90;;;;;;5103677;28;20024;-77
2021/09/13 08:14:03;;;;;;;8.85;5.35;;;26.40;99.90;;;;;;5090099;28;20031;-77
2021/09/13 08:16:29;;;;;;;9.68;5.82;;;26.40;99.90;;;;;;5120793;28;20048;-77
2021/09/13 08:18:57;;;;;;;15.50;8.93;;;26.50;99.90;;;;;;5113211;28;20028;-81
2021/09/13 08:21:27;;;;;;;13.30;8.73;;;26.30;99.90;;;;;;5110145;28;20024;-77
2021/09/13 08:23:53;;;;;;;15.23;7.95;;;26.00;99.90;;;;;;5091623;28;20027;-77
2021/09/13 08:26:19;;;;;;;14.25;7.40;;;25.80;99.90;;;;;;5102448;28;20553;-77
2021/09/13 08:28:45;;;;;;;10.43;7.00;;;25.60;99.90;;;;;;5088845;28;20032;-77
2021/09/13 08:31:11;;;;;;;13.65;6.57;;;25.40;99.90;;;;;;5102055;28;20032;-77
2021/09/13 08:33:38;;;;;;;12.45;6.85;;;25.40;99.90;;;;;;5108022;28;20047;-77
2021/09/13 08:36:05;;;;;;;19.30;7.40;;;25.40;99.90;;;;;;5121782;28;20011;-77
2021/09/13 08:38:32;;;;;;;10.68;6.85;;;25.50;99.90;;;;;;5100223;28;20032;-77
2021/09/13 08:40:58;;;;;;;14.13;6.65;;;25.60;99.90;;;;;;5088510;28;20043;-77
2021/09/13 08:43:24;;;;;;;9.73;6.53;;;25.70;99.90;;;;;;5107643;28;20477;-76
2021/09/13 08:45:59;;;;;;;12.85;7.20;;;25.90;99.90;;;;;;5113774;28;20438;-77
2021/09/13 08:48:45;;;;;;;11.93;6.93;;;25.90;99.90;;;;;;5097662;28;20036;-77
2021/09/13 08:53:51;;;;;;;13.93;6.40;;;25.90;99.90;;;;;;5117226;28;20027;-76
2021/09/13 08:56:17;;;;;;;18.42;7.10;;;25.80;99.90;;;;;;5118769;28;20020;-77
2021/09/13 08:58:45;;;;;;;10.95;8.05;;;25.80;99.90;;;;;;5100603;28;20043;-77
2021/09/13 09:01:14;;;;;;;19.13;7.43;;;25.70;99.90;;;;;;5108409;28;20027;-77
2021/09/13 09:03:43;;;;;;;10.07;6.88;;;25.60;99.90;;;;;;5113301;28;20034;-77
2021/09/13 09:06:38;;;;;;;8.48;7.20;;;25.50;99.90;;;;;;5117717;28;20027;-76
2021/09/13 09:09:08;;;;;;;12.70;6.90;;;25.60;99.90;;;;;;5098082;28;20024;-77
2021/09/13 09:12:01;;;;;;;14.10;7.60;;;25.80;99.90;;;;;;5105715;28;20020;-77
2021/09/13 09:14:40;;;;;;;12.48;7.93;;;26.00;99.90;;;;;;5096112;28;20024;-77
2021/09/13 09:17:19;;;;;;;10.43;6.88;;;26.10;99.90;;;;;;5122946;28;20016;-77
2021/09/13 09:19:45;;;;;;;8.85;6.32;;;26.10;99.90;;;;;;5125638;28;20038;-77
2021/09/13 09:22:28;;;;;;;9.48;6.75;;;26.20;99.90;;;;;;5125749;28;20047;-77
2021/09/13 09:24:56;;;;;;;10.13;7.25;;;26.30;99.90;;;;;;5084100;28;20059;-77
2021/09/13 09:27:24;;;;;;;11.50;7.25;;;26.40;99.90;;;;;;5111165;28;20034;-78
2021/09/13 09:29:50;;;;;;;10.18;6.97;;;26.30;99.90;;;;;;5094675;28;20051;-77
2021/09/13 09:32:22;;;;;;;13.50;6.97;;;26.50;99.90;;;;;;5110327;28;20016;-77
2021/09/13 09:34:48;;;;;;;10.38;6.45;;;26.70;99.90;;;;;;5119903;28;20024;-77
2021/09/13 09:37:14;;;;;;;15.63;8.35;;;26.60;99.90;;;;;;5120600;28;20043;-79
2021/09/13 09:39:42;;;;;;;12.40;6.38;;;26.60;99.90;;;;;;5101459;28;20039;-77
2021/09/13 09:42:10;;;;;;;16.55;6.97;;;26.70;99.90;;;;;;5108565;28;20469;-77
2021/09/13 09:44:36;;;;;;;7.40;6.70;;;26.70;99.90;;;;;;5117360;28;20036;-77
2021/09/13 09:47:08;;;;;;;15.30;6.45;;;26.70;99.90;;;;;;5115445;28;20111;-77
2021/09/13 09:49:45;;;;;;;8.70;6.07;;;26.70;99.90;;;;;;5097749;28;20023;-77
2021/09/13 09:52:25;;;;;;;6.88;6.20;;;26.70;99.90;;;;;;5105592;28;20045;-77
2021/09/13 09:55:05;;;;;;;15.95;7.32;;;26.70;99.90;;;;;;5105939;28;20096;-77
2021/09/13 09:57:31;;;;;;;8.93;6.55;;;26.80;99.90;;;;;;5083314;28;20468;-77
2021/09/13 09:59:57;;;;;;;10.80;6.88;;;27.00;99.90;;;;;;5090523;28;20028;-77
2021/09/13 10:02:24;;;;;;;8.88;6.82;;;27.00;99.90;;;;;;5107521;28;20047;-77
2021/09/13 10:04:54;;;;;;;7.85;7.15;;;27.10;99.90;;;;;;5101004;28;20079;-77
2021/09/13 10:07:21;;;;;;;10.25;7.45;;;27.00;99.90;;;;;;5090425;28;20394;-77
2021/09/13 10:09:48;;;;;;;17.75;6.88;;;27.00;99.90;;;;;;5071480;28;20036;-77
2021/09/13 10:12:14;;;;;;;8.75;7.38;;;26.90;99.90;;;;;;5103907;28;20542;-77
2021/09/13 10:14:40;;;;;;;7.45;6.57;;;26.90;99.90;;;;;;5109017;28;20082;-77
2021/09/13 10:17:07;;;;;;;7.25;6.55;;;26.90;99.90;;;;;;5105791;28;20050;-77
2021/09/13 10:19:34;;;;;;;7.50;6.65;;;26.90;99.90;;;;;;5096632;28;20024;-77
2021/09/13 10:22:01;;;;;;;13.23;7.90;;;27.00;99.90;;;;;;5083124;28;20020;-79
2021/09/13 10:24:31;;;;;;;16.65;8.02;;;27.00;99.90;;;;;;5110542;28;20028;-77
2021/09/13 10:27:06;;;;;;;9.63;8.57;;;26.90;99.90;;;;;;5117888;28;20023;-77
2021/09/13 10:29:32;;;;;;;9.63;7.63;;;26.80;99.90;;;;;;5084161;28;20036;-77
2021/09/13 10:32:01;;;;;;;10.13;6.72;;;26.80;99.90;;;;;;5094599;28;20024;-77
2021/09/13 10:34:34;;;;;;;14.90;8.35;;;26.70;99.90;;;;;;5092779;28;20047;-77
2021/09/13 10:37:10;;;;;;;8.68;7.82;;;26.70;99.90;;;;;;5102538;28;20026;-77
2021/09/13 10:39:54;;;;;;;10.05;6.60;;;26.80;99.90;;;;;;5097949;28;20030;-77
2021/09/13 10:42:29;;;;;;;16.48;7.07;;;26.90;99.90;;;;;;5103553;28;20046;-77
2021/09/13 10:45:20;;;;;;;11.43;6.68;;;26.90;99.90;;;;;;5109719;28;20028;-77
2021/09/13 10:47:50;;;;;;;8.40;7.00;;;26.90;99.90;;;;;;5086597;28;20036;-77
2021/09/13 10:50:23;;;;;;;7.05;6.53;;;27.00;99.90;;;;;;5096547;28;20024;-77
2021/09/13 10:52:51;;;;;;;7.20;6.50;;;26.80;99.90;;;;;;5111480;28;20022;-77
2021/09/13 10:55:20;;;;;;;6.82;6.13;;;27.00;99.90;;;;;;5091680;28;20026;-77
2021/09/13 10:58:09;;;;;;;10.50;7.93;;;26.90;99.90;;;;;;5109288;28;20020;-77
2021/09/13 11:00:38;;;;;;;15.00;7.53;;;27.00;99.90;;;;;;5088643;28;20206;-76
2021/09/13 11:03:32;;;;;;;16.60;7.68;;;27.00;99.90;;;;;;5098590;28;20023;-77
2021/09/13 11:06:17;;;;;;;9.05;6.35;;;27.00;99.90;;;;;;5109108;28;20048;-77
2021/09/13 11:08:53;;;;;;;10.32;6.72;;;27.10;99.90;;;;;;5112475;28;20504;-77
2021/09/13 11:11:29;;;;;;;7.22;6.53;;;27.10;99.90;;;;;;5101848;28;20069;-77
2021/09/13 11:14:19;;;;;;;12.38;7.43;;;27.30;99.90;;;;;;5099289;28;20012;-77
2021/09/13 11:16:55;;;;;;;7.88;5.88;;;27.20;99.90;;;;;;5099087;28;20032;-77
2021/09/13 11:19:26;;;;;;;10.98;5.88;;;27.30;99.90;;;;;;5077796;28;20438;-78
2021/09/13 11:21:53;;;;;;;9.60;6.50;;;27.50;99.90;;;;;;5113317;28;20066;-77
2021/09/13 11:24:25;;;;;;;13.30;6.20;;;27.40;99.60;;;;;;5097428;28;20055;-77
2021/09/13 11:26:54;;;;;;;9.77;6.43;;;27.30;99.80;;;;;;5123684;28;20028;-77
2021/09/13 11:29:36;;;;;;;19.92;7.18;;;27.30;99.50;;;;;;5081614;28;20032;-78
2021/09/13 11:32:07;;;;;;;9.93;6.40;;;27.20;99.60;;;;;;5095188;28;20016;-77
2021/09/13 11:34:40;;;;;;;15.05;6.80;;;27.10;99.90;;;;;;5114419;28;20049;-77
2021/09/13 11:37:10;;;;;;;10.38;6.90;;;27.10;99.90;;;;;;5117963;28;20031;-77
2021/09/13 11:39:38;;;;;;;9.27;5.78;;;27.10;99.90;;;;;;5098459;28;20394;-77
2021/09/13 11:42:10;;;;;;;17.88;7.95;;;27.20;99.90;;;;;;5098955;28;20493;-77
2021/09/13 11:44:39;;;;;;;10.93;6.65;;;27.20;99.90;;;;;;5078066;28;20059;-77
2021/09/13 11:47:06;;;;;;;10.15;6.22;;;27.00;99.90;;;;;;5104521;28;20615;-77
2021/09/13 11:49:38;;;;;;;7.68;5.85;;;27.00;99.90;;;;;;5103443;28;20040;-77
2021/09/13 11:52:10;;;;;;;9.20;6.60;;;26.90;99.90;;;;;;5113264;28;20046;-77
2021/09/13 11:54:46;;;;;;;10.52;7.07;;;26.90;99.90;;;;;;5103572;28;20035;-77
2021/09/13 11:57:40;;;;;;;7.57;6.65;;;26.90;99.90;;;;;;5094620;28;20020;-77
2021/09/13 12:00:14;;;;;;;10.90;6.00;;;27.00;99.90;;;;;;5094176;28;20032;-77
2021/09/13 12:02:52;;;;;;;8.68;6.30;;;27.00;99.80;;;;;;5095267;28;20115;-78
2021/09/13 12:05:21;;;;;;;10.20;7.72;;;26.90;99.90;;;;;;5108777;28;20028;-79
2021/09/13 12:07:49;;;;;;;8.20;5.75;;;27.00;99.80;;;;;;5084394;28;20051;-78
2021/09/13 12:10:25;;;;;;;7.45;6.68;;;27.00;99.80;;;;;;5112878;28;20027;-78
2021/09/13 12:12:54;;;;;;;10.02;5.63;;;27.10;99.90;;;;;;5099278;28;20020;-77
2021/09/13 12:15:23;;;;;;;16.70;5.80;;;27.20;99.60;;;;;;5116082;28;20074;-77
2021/09/13 12:17:52;;;;;;;6.03;5.35;;;27.40;99.10;;;;;;5110689;28;20004;-77
2021/09/13 12:20:24;;;;;;;9.75;7.07;;;27.40;98.80;;;;;;5120761;28;20040;-77
2021/09/13 12:23:09;;;;;;;9.38;6.38;;;27.50;99.60;;;;;;5118985;28;20020;-77
2021/09/13 12:25:45;;;;;;;13.60;6.72;;;27.50;99.90;;;;;;5125948;27;20038;-77
2021/09/13 12:28:12;;;;;;;9.20;6.28;;;27.60;99.90;;;;;;5115006;28;20230;-77
2021/09/13 12:30:41;;;;;;;9.95;6.03;;;27.60;99.90;;;;;;5098856;28;20028;-78
2021/09/13 12:33:11;;;;;;;6.00;5.47;;;27.60;99.30;;;;;;5102959;28;20055;-77
2021/09/13 12:35:38;;;;;;;11.45;6.07;;;27.50;99.60;;;;;;5124613;28;20036;-77
2021/09/13 12:38:09;;;;;;;6.90;6.25;;;27.40;99.20;;;;;;5123649;28;20087;-77
2021/09/13 12:40:53;;;;;;;8.88;6.47;;;27.30;99.70;;;;;;5120937;28;20022;-77
2021/09/13 12:43:35;;;;;;;9.18;6.43;;;27.00;99.90;;;;;;5107612;28;20024;-78
2021/09/13 12:46:10;;;;;;;8.15;6.68;;;27.00;99.90;;;;;;5106258;28;20038;-77
2021/09/13 12:49:01;;;;;;;7.97;6.90;;;27.10;99.90;;;;;;5114207;28;20024;-78
2021/09/13 12:51:27;;;;;;;10.52;6.60;;;27.20;99.90;;;;;;5090660;28;20020;-77